sensor_id;sensor_type;location;lat;lon;timestamp;P1;durP1;ratioP1;P2;durP2;ratioP2
71395;SDS011;59888;55.814;37.132;2023-04-16T00:00:51;7.97;;;3.60;;
71395;SDS011;59888;55.814;37.132;2023-04-16T00:03:17;7.13;;;3.83;;
71395;SDS011;59888;55.814;37.132;2023-04-16T00:05:43;8.85;;;3.47;;
71395;SDS011;59888;55.814;37.132;2023-04-16T00:08:09;7.00;;;3.30;;
71395;SDS011;59888;55.814;37.132;2023-04-16T00:10:35;7.35;;;3.30;;
71395;SDS011;59888;55.814;37.132;2023-04-16T00:13:00;6.03;;;3.25;;
71395;SDS011;59888;55.814;37.132;2023-04-16T00:15:26;9.10;;;3.58;;
71395;SDS011;59888;55.814;37.132;2023-04-16T00:17:52;7.75;;;3.25;;
71395;SDS011;59888;55.814;37.132;2023-04-16T00:20:18;7.43;;;3.13;;
71395;SDS011;59888;55.814;37.132;2023-04-16T00:22:44;8.00;;;3.67;;
71395;SDS011;59888;55.814;37.132;2023-04-16T00:25:11;8.32;;;3.80;;
71395;SDS011;59888;55.814;37.132;2023-04-16T00:27:38;7.55;;;3.20;;
71395;SDS011;59888;55.814;37.132;2023-04-16T00:30:04;8.82;;;2.85;;
71395;SDS011;59888;55.814;37.132;2023-04-16T00:32:31;8.23;;;3.40;;
71395;SDS011;59888;55.814;37.132;2023-04-16T00:34:57;9.68;;;3.90;;
71395;SDS011;59888;55.814;37.132;2023-04-16T00:37:23;8.02;;;3.35;;
71395;SDS011;59888;55.814;37.132;2023-04-16T00:39:49;6.90;;;3.33;;
71395;SDS011;59888;55.814;37.132;2023-04-16T00:42:15;8.40;;;3.20;;
71395;SDS011;59888;55.814;37.132;2023-04-16T00:44:40;9.05;;;3.38;;
71395;SDS011;59888;55.814;37.132;2023-04-16T00:47:06;7.55;;;3.13;;
71395;SDS011;59888;55.814;37.132;2023-04-16T00:49:33;5.22;;;2.75;;
71395;SDS011;59888;55.814;37.132;2023-04-16T00:52:00;8.57;;;3.22;;
71395;SDS011;59888;55.814;37.132;2023-04-16T00:54:27;8.30;;;3.40;;
71395;SDS011;59888;55.814;37.132;2023-04-16T00:56:53;8.57;;;3.10;;
71395;SDS011;59888;55.814;37.132;2023-04-16T00:59:20;8.60;;;3.20;;
71395;SDS011;59888;55.814;37.132;2023-04-16T01:01:46;9.32;;;2.85;;
71395;SDS011;59888;55.814;37.132;2023-04-16T01:04:12;9.77;;;3.15;;
71395;SDS011;59888;55.814;37.132;2023-04-16T01:06:41;7.82;;;3.25;;
71395;SDS011;59888;55.814;37.132;2023-04-16T01:09:08;6.57;;;3.47;;
71395;SDS011;59888;55.814;37.132;2023-04-16T01:11:36;8.77;;;3.47;;
71395;SDS011;59888;55.814;37.132;2023-04-16T01:14:02;6.88;;;3.20;;
71395;SDS011;59888;55.814;37.132;2023-04-16T01:16:28;7.20;;;2.95;;
71395;SDS011;59888;55.814;37.132;2023-04-16T01:18:55;7.82;;;3.00;;
71395;SDS011;59888;55.814;37.132;2023-04-16T01:21:21;7.40;;;3.13;;
71395;SDS011;59888;55.814;37.132;2023-04-16T01:23:46;10.30;;;4.03;;
71395;SDS011;59888;55.814;37.132;2023-04-16T01:26:12;7.30;;;3.20;;
71395;SDS011;59888;55.814;37.132;2023-04-16T01:28:40;8.40;;;2.88;;
71395;SDS011;59888;55.814;37.132;2023-04-16T01:31:06;10.55;;;3.22;;
71395;SDS011;59888;55.814;37.132;2023-04-16T01:33:40;5.22;;;3.00;;
71395;SDS011;59888;55.814;37.132;2023-04-16T01:36:07;6.28;;;2.50;;
71395;SDS011;59888;55.814;37.132;2023-04-16T01:38:33;8.80;;;3.00;;
71395;SDS011;59888;55.814;37.132;2023-04-16T01:40:58;5.20;;;2.90;;
71395;SDS011;59888;55.814;37.132;2023-04-16T01:43:24;7.75;;;3.00;;
71395;SDS011;59888;55.814;37.132;2023-04-16T01:45:51;6.10;;;2.90;;
71395;SDS011;59888;55.814;37.132;2023-04-16T01:48:23;5.45;;;2.72;;
71395;SDS011;59888;55.814;37.132;2023-04-16T01:50:49;6.25;;;2.92;;
71395;SDS011;59888;55.814;37.132;2023-04-16T01:53:15;6.40;;;2.47;;
71395;SDS011;59888;55.814;37.132;2023-04-16T01:55:40;6.57;;;2.95;;
71395;SDS011;59888;55.814;37.132;2023-04-16T01:58:06;6.07;;;2.92;;
71395;SDS011;59888;55.814;37.132;2023-04-16T02:00:35;6.97;;;3.28;;
71395;SDS011;59888;55.814;37.132;2023-04-16T02:03:01;6.40;;;2.60;;
71395;SDS011;59888;55.814;37.132;2023-04-16T02:05:27;5.80;;;3.03;;
71395;SDS011;59888;55.814;37.132;2023-04-16T02:07:53;4.95;;;2.58;;
71395;SDS011;59888;55.814;37.132;2023-04-16T02:10:18;4.65;;;2.80;;
71395;SDS011;59888;55.814;37.132;2023-04-16T02:12:45;6.47;;;2.90;;
71395;SDS011;59888;55.814;37.132;2023-04-16T02:15:13;6.05;;;2.60;;
71395;SDS011;59888;55.814;37.132;2023-04-16T02:17:41;6.13;;;2.85;;
71395;SDS011;59888;55.814;37.132;2023-04-16T02:20:08;5.30;;;3.08;;
71395;SDS011;59888;55.814;37.132;2023-04-16T02:22:41;5.85;;;2.65;;
71395;SDS011;59888;55.814;37.132;2023-04-16T02:25:11;9.52;;;3.33;;
71395;SDS011;59888;55.814;37.132;2023-04-16T02:27:38;6.00;;;2.67;;
71395;SDS011;59888;55.814;37.132;2023-04-16T02:30:19;8.65;;;3.38;;
71395;SDS011;59888;55.814;37.132;2023-04-16T02:32:45;8.77;;;2.90;;
71395;SDS011;59888;55.814;37.132;2023-04-16T02:35:11;9.52;;;2.97;;
71395;SDS011;59888;55.814;37.132;2023-04-16T02:37:37;7.00;;;3.05;;
71395;SDS011;59888;55.814;37.132;2023-04-16T02:40:05;7.13;;;3.05;;
71395;SDS011;59888;55.814;37.132;2023-04-16T02:42:31;7.38;;;3.20;;
71395;SDS011;59888;55.814;37.132;2023-04-16T02:44:57;7.38;;;3.00;;
71395;SDS011;59888;55.814;37.132;2023-04-16T02:47:23;5.63;;;2.92;;
71395;SDS011;59888;55.814;37.132;2023-04-16T02:49:49;7.78;;;3.20;;
71395;SDS011;59888;55.814;37.132;2023-04-16T02:52:15;7.47;;;3.67;;
71395;SDS011;59888;55.814;37.132;2023-04-16T02:54:41;6.65;;;2.83;;
71395;SDS011;59888;55.814;37.132;2023-04-16T02:57:07;9.57;;;3.33;;
71395;SDS011;59888;55.814;37.132;2023-04-16T02:59:33;10.57;;;3.60;;
71395;SDS011;59888;55.814;37.132;2023-04-16T03:01:59;8.43;;;3.08;;
71395;SDS011;59888;55.814;37.132;2023-04-16T03:04:24;7.32;;;3.10;;
71395;SDS011;59888;55.814;37.132;2023-04-16T03:06:50;6.75;;;2.85;;
71395;SDS011;59888;55.814;37.132;2023-04-16T03:09:16;5.88;;;3.00;;
71395;SDS011;59888;55.814;37.132;2023-04-16T03:11:42;6.65;;;2.85;;
71395;SDS011;59888;55.814;37.132;2023-04-16T03:14:09;6.70;;;2.97;;
71395;SDS011;59888;55.814;37.132;2023-04-16T03:16:34;6.82;;;2.90;;
71395;SDS011;59888;55.814;37.132;2023-04-16T03:19:00;8.70;;;2.72;;
71395;SDS011;59888;55.814;37.132;2023-04-16T03:21:26;7.93;;;3.13;;
71395;SDS011;59888;55.814;37.132;2023-04-16T03:23:52;10.90;;;2.92;;
71395;SDS011;59888;55.814;37.132;2023-04-16T03:26:20;7.85;;;3.00;;
71395;SDS011;59888;55.814;37.132;2023-04-16T03:28:47;9.00;;;3.10;;
71395;SDS011;59888;55.814;37.132;2023-04-16T03:31:13;9.15;;;3.20;;
71395;SDS011;59888;55.814;37.132;2023-04-16T03:33:39;8.23;;;3.17;;
71395;SDS011;59888;55.814;37.132;2023-04-16T03:36:05;6.30;;;2.50;;
71395;SDS011;59888;55.814;37.132;2023-04-16T03:38:31;6.80;;;2.72;;
71395;SDS011;59888;55.814;37.132;2023-04-16T03:40:58;8.35;;;2.80;;
71395;SDS011;59888;55.814;37.132;2023-04-16T03:43:25;8.20;;;2.78;;
71395;SDS011;59888;55.814;37.132;2023-04-16T03:45:51;9.20;;;3.08;;
71395;SDS011;59888;55.814;37.132;2023-04-16T03:48:20;11.20;;;3.25;;
71395;SDS011;59888;55.814;37.132;2023-04-16T03:50:46;7.22;;;3.20;;
71395;SDS011;59888;55.814;37.132;2023-04-16T03:53:14;6.25;;;2.80;;
71395;SDS011;59888;55.814;37.132;2023-04-16T03:55:41;8.65;;;3.20;;
71395;SDS011;59888;55.814;37.132;2023-04-16T03:58:08;6.65;;;3.03;;
71395;SDS011;59888;55.814;37.132;2023-04-16T04:00:34;6.22;;;3.35;;
71395;SDS011;59888;55.814;37.132;2023-04-16T04:03:08;8.40;;;2.97;;
71395;SDS011;59888;55.814;37.132;2023-04-16T04:05:36;9.43;;;3.40;;
71395;SDS011;59888;55.814;37.132;2023-04-16T04:08:04;7.25;;;3.30;;
71395;SDS011;59888;55.814;37.132;2023-04-16T04:10:34;8.18;;;2.90;;
71395;SDS011;59888;55.814;37.132;2023-04-16T04:13:02;5.93;;;3.33;;
71395;SDS011;59888;55.814;37.132;2023-04-16T04:15:29;6.93;;;3.30;;
71395;SDS011;59888;55.814;37.132;2023-04-16T04:17:55;7.97;;;3.05;;
71395;SDS011;59888;55.814;37.132;2023-04-16T04:20:22;7.30;;;3.20;;
71395;SDS011;59888;55.814;37.132;2023-04-16T04:22:49;13.18;;;3.35;;
71395;SDS011;59888;55.814;37.132;2023-04-16T04:25:16;6.55;;;3.03;;
71395;SDS011;59888;55.814;37.132;2023-04-16T04:27:42;7.35;;;3.17;;
71395;SDS011;59888;55.814;37.132;2023-04-16T04:30:08;6.30;;;3.13;;
71395;SDS011;59888;55.814;37.132;2023-04-16T04:32:35;8.40;;;3.28;;
71395;SDS011;59888;55.814;37.132;2023-04-16T04:35:02;8.82;;;3.30;;
71395;SDS011;59888;55.814;37.132;2023-04-16T04:37:28;11.30;;;3.30;;
71395;SDS011;59888;55.814;37.132;2023-04-16T04:39:54;7.20;;;3.17;;
71395;SDS011;59888;55.814;37.132;2023-04-16T04:42:23;8.95;;;3.55;;
71395;SDS011;59888;55.814;37.132;2023-04-16T04:44:49;8.30;;;3.60;;
71395;SDS011;59888;55.814;37.132;2023-04-16T04:47:15;7.63;;;3.17;;
71395;SDS011;59888;55.814;37.132;2023-04-16T04:49:41;6.57;;;3.20;;
71395;SDS011;59888;55.814;37.132;2023-04-16T04:52:07;6.63;;;3.55;;
71395;SDS011;59888;55.814;37.132;2023-04-16T04:54:33;7.90;;;3.33;;
71395;SDS011;59888;55.814;37.132;2023-04-16T04:56:59;7.28;;;3.33;;
71395;SDS011;59888;55.814;37.132;2023-04-16T04:59:27;12.95;;;3.67;;
71395;SDS011;59888;55.814;37.132;2023-04-16T05:01:53;8.10;;;4.03;;
71395;SDS011;59888;55.814;37.132;2023-04-16T05:04:19;10.13;;;3.88;;
71395;SDS011;59888;55.814;37.132;2023-04-16T05:06:45;6.97;;;3.20;;
71395;SDS011;59888;55.814;37.132;2023-04-16T05:09:10;6.80;;;3.20;;
71395;SDS011;59888;55.814;37.132;2023-04-16T05:11:36;6.20;;;3.15;;
71395;SDS011;59888;55.814;37.132;2023-04-16T05:14:03;8.32;;;3.35;;
71395;SDS011;59888;55.814;37.132;2023-04-16T05:16:29;8.00;;;3.53;;
71395;SDS011;59888;55.814;37.132;2023-04-16T05:18:55;6.47;;;3.17;;
71395;SDS011;59888;55.814;37.132;2023-04-16T05:21:22;8.60;;;3.40;;
71395;SDS011;59888;55.814;37.132;2023-04-16T05:23:48;5.43;;;3.13;;
71395;SDS011;59888;55.814;37.132;2023-04-16T05:26:14;6.72;;;3.38;;
71395;SDS011;59888;55.814;37.132;2023-04-16T05:28:40;8.30;;;3.40;;
71395;SDS011;59888;55.814;37.132;2023-04-16T05:31:05;6.88;;;3.30;;
71395;SDS011;59888;55.814;37.132;2023-04-16T05:33:31;10.52;;;3.08;;
71395;SDS011;59888;55.814;37.132;2023-04-16T05:35:57;9.23;;;3.40;;
71395;SDS011;59888;55.814;37.132;2023-04-16T05:38:23;9.85;;;3.47;;
71395;SDS011;59888;55.814;37.132;2023-04-16T05:40:49;10.13;;;3.00;;
71395;SDS011;59888;55.814;37.132;2023-04-16T05:43:14;7.18;;;3.28;;
71395;SDS011;59888;55.814;37.132;2023-04-16T05:45:40;6.00;;;2.92;;
71395;SDS011;59888;55.814;37.132;2023-04-16T05:48:06;12.90;;;2.92;;
71395;SDS011;59888;55.814;37.132;2023-04-16T05:50:36;6.25;;;3.40;;
71395;SDS011;59888;55.814;37.132;2023-04-16T05:53:04;8.48;;;3.33;;
71395;SDS011;59888;55.814;37.132;2023-04-16T05:55:31;7.93;;;2.90;;
71395;SDS011;59888;55.814;37.132;2023-04-16T05:57:57;6.80;;;3.13;;
71395;SDS011;59888;55.814;37.132;2023-04-16T06:00:23;8.10;;;3.63;;
71395;SDS011;59888;55.814;37.132;2023-04-16T06:02:49;7.80;;;3.17;;
71395;SDS011;59888;55.814;37.132;2023-04-16T06:05:15;7.35;;;2.92;;
71395;SDS011;59888;55.814;37.132;2023-04-16T06:07:41;5.18;;;2.75;;
71395;SDS011;59888;55.814;37.132;2023-04-16T06:10:07;6.72;;;2.90;;
71395;SDS011;59888;55.814;37.132;2023-04-16T06:12:33;6.95;;;3.58;;
71395;SDS011;59888;55.814;37.132;2023-04-16T06:14:59;7.47;;;3.17;;
71395;SDS011;59888;55.814;37.132;2023-04-16T06:17:25;5.65;;;2.88;;
71395;SDS011;59888;55.814;37.132;2023-04-16T06:19:51;8.38;;;3.42;;
71395;SDS011;59888;55.814;37.132;2023-04-16T06:22:17;8.02;;;2.75;;
71395;SDS011;59888;55.814;37.132;2023-04-16T06:24:43;6.32;;;2.80;;
71395;SDS011;59888;55.814;37.132;2023-04-16T06:27:09;10.40;;;2.95;;
71395;SDS011;59888;55.814;37.132;2023-04-16T06:29:35;9.10;;;3.13;;
71395;SDS011;59888;55.814;37.132;2023-04-16T06:32:01;8.10;;;2.80;;
71395;SDS011;59888;55.814;37.132;2023-04-16T06:34:28;8.38;;;3.05;;
71395;SDS011;59888;55.814;37.132;2023-04-16T06:36:54;5.30;;;2.60;;
71395;SDS011;59888;55.814;37.132;2023-04-16T06:39:20;7.15;;;3.10;;
71395;SDS011;59888;55.814;37.132;2023-04-16T06:41:49;6.70;;;2.78;;
71395;SDS011;59888;55.814;37.132;2023-04-16T06:44:16;7.47;;;2.90;;
71395;SDS011;59888;55.814;37.132;2023-04-16T06:46:42;10.82;;;2.50;;
71395;SDS011;59888;55.814;37.132;2023-04-16T06:49:08;6.65;;;2.85;;
71395;SDS011;59888;55.814;37.132;2023-04-16T06:51:33;6.03;;;2.70;;
71395;SDS011;59888;55.814;37.132;2023-04-16T06:53:59;7.22;;;2.90;;
71395;SDS011;59888;55.814;37.132;2023-04-16T06:56:26;7.93;;;2.78;;
71395;SDS011;59888;55.814;37.132;2023-04-16T06:58:52;7.00;;;2.85;;
71395;SDS011;59888;55.814;37.132;2023-04-16T07:01:18;10.82;;;2.65;;
71395;SDS011;59888;55.814;37.132;2023-04-16T07:03:44;5.82;;;2.78;;
71395;SDS011;59888;55.814;37.132;2023-04-16T07:06:09;7.25;;;2.58;;
71395;SDS011;59888;55.814;37.132;2023-04-16T07:08:35;7.65;;;2.80;;
71395;SDS011;59888;55.814;37.132;2023-04-16T07:11:01;5.90;;;3.03;;
71395;SDS011;59888;55.814;37.132;2023-04-16T07:13:27;7.40;;;3.10;;
71395;SDS011;59888;55.814;37.132;2023-04-16T07:15:53;12.20;;;3.17;;
71395;SDS011;59888;55.814;37.132;2023-04-16T07:18:18;5.20;;;2.80;;
71395;SDS011;59888;55.814;37.132;2023-04-16T07:20:45;24.10;;;3.95;;
71395;SDS011;59888;55.814;37.132;2023-04-16T07:23:10;5.20;;;2.40;;
71395;SDS011;59888;55.814;37.132;2023-04-16T07:25:36;5.13;;;2.55;;
71395;SDS011;59888;55.814;37.132;2023-04-16T07:28:02;5.63;;;2.20;;
71395;SDS011;59888;55.814;37.132;2023-04-16T07:30:28;8.40;;;2.40;;
71395;SDS011;59888;55.814;37.132;2023-04-16T07:32:59;4.15;;;2.13;;
71395;SDS011;59888;55.814;37.132;2023-04-16T07:35:27;4.40;;;2.50;;
71395;SDS011;59888;55.814;37.132;2023-04-16T07:37:53;4.82;;;2.50;;
71395;SDS011;59888;55.814;37.132;2023-04-16T07:40:19;5.18;;;2.20;;
71395;SDS011;59888;55.814;37.132;2023-04-16T07:42:45;10.57;;;2.80;;
71395;SDS011;59888;55.814;37.132;2023-04-16T07:45:11;4.40;;;2.10;;
71395;SDS011;59888;55.814;37.132;2023-04-16T07:47:37;6.07;;;2.22;;
71395;SDS011;59888;55.814;37.132;2023-04-16T07:50:03;3.63;;;1.88;;
71395;SDS011;59888;55.814;37.132;2023-04-16T07:52:30;12.10;;;2.10;;
71395;SDS011;59888;55.814;37.132;2023-04-16T07:54:55;4.05;;;1.90;;
71395;SDS011;59888;55.814;37.132;2023-04-16T07:57:21;5.55;;;2.20;;
71395;SDS011;59888;55.814;37.132;2023-04-16T07:59:47;7.30;;;2.33;;
71395;SDS011;59888;55.814;37.132;2023-04-16T08:02:13;7.95;;;2.10;;
71395;SDS011;59888;55.814;37.132;2023-04-16T08:04:41;5.80;;;1.90;;
71395;SDS011;59888;55.814;37.132;2023-04-16T08:07:08;4.80;;;2.42;;
71395;SDS011;59888;55.814;37.132;2023-04-16T08:09:34;4.93;;;2.13;;
71395;SDS011;59888;55.814;37.132;2023-04-16T08:12:00;4.75;;;1.98;;
71395;SDS011;59888;55.814;37.132;2023-04-16T08:14:27;3.13;;;1.98;;
71395;SDS011;59888;55.814;37.132;2023-04-16T08:16:53;8.02;;;2.08;;
71395;SDS011;59888;55.814;37.132;2023-04-16T08:19:19;7.28;;;2.15;;
71395;SDS011;59888;55.814;37.132;2023-04-16T08:21:45;6.45;;;2.50;;
71395;SDS011;59888;55.814;37.132;2023-04-16T08:24:11;5.50;;;2.00;;
71395;SDS011;59888;55.814;37.132;2023-04-16T08:26:37;5.28;;;2.10;;
71395;SDS011;59888;55.814;37.132;2023-04-16T08:29:03;5.13;;;2.20;;
71395;SDS011;59888;55.814;37.132;2023-04-16T08:31:28;6.63;;;2.80;;
71395;SDS011;59888;55.814;37.132;2023-04-16T08:33:54;5.90;;;1.92;;
71395;SDS011;59888;55.814;37.132;2023-04-16T08:36:20;7.35;;;2.08;;
71395;SDS011;59888;55.814;37.132;2023-04-16T08:38:46;6.55;;;2.60;;
71395;SDS011;59888;55.814;37.132;2023-04-16T08:41:12;5.72;;;2.53;;
71395;SDS011;59888;55.814;37.132;2023-04-16T08:43:41;5.70;;;2.25;;
71395;SDS011;59888;55.814;37.132;2023-04-16T08:46:09;6.05;;;2.20;;
71395;SDS011;59888;55.814;37.132;2023-04-16T08:48:36;7.25;;;2.55;;
71395;SDS011;59888;55.814;37.132;2023-04-16T08:51:03;3.22;;;2.20;;
71395;SDS011;59888;55.814;37.132;2023-04-16T08:53:34;4.35;;;2.33;;
71395;SDS011;59888;55.814;37.132;2023-04-16T08:56:04;5.53;;;2.28;;
71395;SDS011;59888;55.814;37.132;2023-04-16T08:58:34;4.57;;;2.50;;
71395;SDS011;59888;55.814;37.132;2023-04-16T09:01:02;5.22;;;2.47;;
71395;SDS011;59888;55.814;37.132;2023-04-16T09:03:29;4.30;;;2.17;;
71395;SDS011;59888;55.814;37.132;2023-04-16T09:05:56;5.10;;;2.38;;
71395;SDS011;59888;55.814;37.132;2023-04-16T09:08:27;5.60;;;2.50;;
71395;SDS011;59888;55.814;37.132;2023-04-16T09:10:57;6.55;;;2.20;;
71395;SDS011;59888;55.814;37.132;2023-04-16T09:13:24;4.90;;;2.53;;
71395;SDS011;59888;55.814;37.132;2023-04-16T09:15:53;3.95;;;2.45;;
71395;SDS011;59888;55.814;37.132;2023-04-16T09:18:19;5.50;;;2.42;;
71395;SDS011;59888;55.814;37.132;2023-04-16T09:20:46;6.22;;;2.42;;
71395;SDS011;59888;55.814;37.132;2023-04-16T09:23:12;5.32;;;2.78;;
71395;SDS011;59888;55.814;37.132;2023-04-16T09:25:38;5.47;;;2.40;;
71395;SDS011;59888;55.814;37.132;2023-04-16T09:28:04;6.38;;;2.63;;
71395;SDS011;59888;55.814;37.132;2023-04-16T09:30:30;6.55;;;2.80;;
71395;SDS011;59888;55.814;37.132;2023-04-16T09:35:47;6.90;;;2.58;;
71395;SDS011;59888;55.814;37.132;2023-04-16T09:38:14;7.82;;;3.05;;
71395;SDS011;59888;55.814;37.132;2023-04-16T09:40:40;8.93;;;2.65;;
71395;SDS011;59888;55.814;37.132;2023-04-16T09:43:10;7.75;;;2.78;;
71395;SDS011;59888;55.814;37.132;2023-04-16T09:45:47;8.63;;;2.50;;
71395;SDS011;59888;55.814;37.132;2023-04-16T09:48:29;7.05;;;2.90;;
71395;SDS011;59888;55.814;37.132;2023-04-16T09:50:57;6.30;;;3.00;;
71395;SDS011;59888;55.814;37.132;2023-04-16T09:53:25;9.25;;;2.90;;
71395;SDS011;59888;55.814;37.132;2023-04-16T09:56:01;6.70;;;2.80;;
71395;SDS011;59888;55.814;37.132;2023-04-16T09:58:29;10.15;;;3.40;;
71395;SDS011;59888;55.814;37.132;2023-04-16T10:00:59;6.07;;;2.45;;
71395;SDS011;59888;55.814;37.132;2023-04-16T10:03:29;8.55;;;2.65;;
71395;SDS011;59888;55.814;37.132;2023-04-16T10:06:00;6.47;;;2.60;;
71395;SDS011;59888;55.814;37.132;2023-04-16T10:08:31;5.90;;;2.60;;
71395;SDS011;59888;55.814;37.132;2023-04-16T10:10:57;5.63;;;3.10;;
71395;SDS011;59888;55.814;37.132;2023-04-16T10:13:23;6.00;;;2.92;;
71395;SDS011;59888;55.814;37.132;2023-04-16T10:15:55;4.68;;;2.60;;
71395;SDS011;59888;55.814;37.132;2023-04-16T10:18:21;5.20;;;2.65;;
71395;SDS011;59888;55.814;37.132;2023-04-16T10:20:48;7.63;;;2.80;;
71395;SDS011;59888;55.814;37.132;2023-04-16T10:23:15;7.05;;;2.80;;
71395;SDS011;59888;55.814;37.132;2023-04-16T10:25:41;5.53;;;2.60;;
71395;SDS011;59888;55.814;37.132;2023-04-16T10:28:08;6.65;;;2.72;;
71395;SDS011;59888;55.814;37.132;2023-04-16T10:30:34;5.28;;;2.67;;
71395;SDS011;59888;55.814;37.132;2023-04-16T10:33:02;6.13;;;2.50;;
71395;SDS011;59888;55.814;37.132;2023-04-16T10:35:29;5.72;;;2.65;;
71395;SDS011;59888;55.814;37.132;2023-04-16T10:37:55;5.80;;;2.88;;
71395;SDS011;59888;55.814;37.132;2023-04-16T10:40:22;7.95;;;2.90;;
71395;SDS011;59888;55.814;37.132;2023-04-16T10:42:53;5.10;;;2.78;;
71395;SDS011;59888;55.814;37.132;2023-04-16T10:45:26;6.10;;;3.00;;
71395;SDS011;59888;55.814;37.132;2023-04-16T10:47:55;7.25;;;2.78;;
71395;SDS011;59888;55.814;37.132;2023-04-16T10:50:22;9.45;;;3.10;;
71395;SDS011;59888;55.814;37.132;2023-04-16T10:52:48;4.97;;;3.08;;
71395;SDS011;59888;55.814;37.132;2023-04-16T10:55:37;5.35;;;2.90;;
71395;SDS011;59888;55.814;37.132;2023-04-16T10:58:25;7.97;;;3.30;;
71395;SDS011;59888;55.814;37.132;2023-04-16T11:00:53;10.75;;;3.50;;
71395;SDS011;59888;55.814;37.132;2023-04-16T11:03:18;7.50;;;2.97;;
71395;SDS011;59888;55.814;37.132;2023-04-16T11:05:44;5.63;;;2.80;;
71395;SDS011;59888;55.814;37.132;2023-04-16T11:08:13;7.22;;;2.80;;
71395;SDS011;59888;55.814;37.132;2023-04-16T11:10:40;5.07;;;3.05;;
71395;SDS011;59888;55.814;37.132;2023-04-16T11:13:06;5.88;;;2.67;;
71395;SDS011;59888;55.814;37.132;2023-04-16T11:15:33;5.43;;;2.92;;
71395;SDS011;59888;55.814;37.132;2023-04-16T11:17:59;7.32;;;3.17;;
71395;SDS011;59888;55.814;37.132;2023-04-16T11:20:26;6.70;;;3.10;;
71395;SDS011;59888;55.814;37.132;2023-04-16T11:22:53;7.00;;;3.15;;
71395;SDS011;59888;55.814;37.132;2023-04-16T11:25:21;6.57;;;3.38;;
71395;SDS011;59888;55.814;37.132;2023-04-16T11:27:48;4.88;;;3.03;;
71395;SDS011;59888;55.814;37.132;2023-04-16T11:30:18;5.03;;;2.90;;
71395;SDS011;59888;55.814;37.132;2023-04-16T11:32:56;10.77;;;3.38;;
71395;SDS011;59888;55.814;37.132;2023-04-16T11:35:22;6.43;;;2.97;;
71395;SDS011;59888;55.814;37.132;2023-04-16T11:37:48;10.60;;;3.45;;
71395;SDS011;59888;55.814;37.132;2023-04-16T11:40:13;7.80;;;3.03;;
71395;SDS011;59888;55.814;37.132;2023-04-16T11:42:40;9.27;;;3.63;;
71395;SDS011;59888;55.814;37.132;2023-04-16T11:45:09;9.88;;;3.30;;
71395;SDS011;59888;55.814;37.132;2023-04-16T11:47:43;4.85;;;2.80;;
71395;SDS011;59888;55.814;37.132;2023-04-16T11:50:23;13.15;;;3.22;;
71395;SDS011;59888;55.814;37.132;2023-04-16T11:52:51;5.95;;;3.17;;
71395;SDS011;59888;55.814;37.132;2023-04-16T11:55:19;6.55;;;3.05;;
71395;SDS011;59888;55.814;37.132;2023-04-16T11:57:45;10.93;;;3.40;;
71395;SDS011;59888;55.814;37.132;2023-04-16T12:00:11;8.63;;;3.50;;
71395;SDS011;59888;55.814;37.132;2023-04-16T12:02:39;5.50;;;3.08;;
71395;SDS011;59888;55.814;37.132;2023-04-16T12:07:58;8.85;;;3.47;;
71395;SDS011;59888;55.814;37.132;2023-04-16T12:10:35;5.47;;;3.40;;
71395;SDS011;59888;55.814;37.132;2023-04-16T12:13:15;7.80;;;3.80;;
71395;SDS011;59888;55.814;37.132;2023-04-16T12:15:51;23.20;;;4.10;;
71395;SDS011;59888;55.814;37.132;2023-04-16T12:18:22;9.13;;;3.78;;
71395;SDS011;59888;55.814;37.132;2023-04-16T12:20:52;5.90;;;3.50;;
71395;SDS011;59888;55.814;37.132;2023-04-16T12:23:32;12.75;;;3.65;;
71395;SDS011;59888;55.814;37.132;2023-04-16T12:25:58;10.52;;;3.80;;
71395;SDS011;59888;55.814;37.132;2023-04-16T12:28:35;7.55;;;3.25;;
71395;SDS011;59888;55.814;37.132;2023-04-16T12:31:03;7.53;;;3.92;;
71395;SDS011;59888;55.814;37.132;2023-04-16T12:33:29;7.60;;;3.60;;
71395;SDS011;59888;55.814;37.132;2023-04-16T12:35:55;8.40;;;4.25;;
71395;SDS011;59888;55.814;37.132;2023-04-16T12:38:21;6.15;;;3.55;;
71395;SDS011;59888;55.814;37.132;2023-04-16T12:40:47;7.40;;;3.60;;
71395;SDS011;59888;55.814;37.132;2023-04-16T12:43:13;10.57;;;4.07;;
71395;SDS011;59888;55.814;37.132;2023-04-16T12:45:39;7.85;;;4.15;;
71395;SDS011;59888;55.814;37.132;2023-04-16T12:48:05;5.65;;;3.30;;
71395;SDS011;59888;55.814;37.132;2023-04-16T12:50:31;10.93;;;3.28;;
71395;SDS011;59888;55.814;37.132;2023-04-16T12:52:57;6.32;;;4.13;;
71395;SDS011;59888;55.814;37.132;2023-04-16T12:55:23;10.60;;;3.13;;
71395;SDS011;59888;55.814;37.132;2023-04-16T12:57:50;5.40;;;3.20;;
71395;SDS011;59888;55.814;37.132;2023-04-16T13:00:19;6.22;;;3.47;;
71395;SDS011;59888;55.814;37.132;2023-04-16T13:02:45;7.80;;;3.25;;
71395;SDS011;59888;55.814;37.132;2023-04-16T13:05:11;5.70;;;2.90;;
71395;SDS011;59888;55.814;37.132;2023-04-16T13:07:40;5.43;;;3.00;;
71395;SDS011;59888;55.814;37.132;2023-04-16T13:10:06;6.15;;;3.45;;
71395;SDS011;59888;55.814;37.132;2023-04-16T13:12:33;7.50;;;3.10;;
71395;SDS011;59888;55.814;37.132;2023-04-16T13:14:59;5.03;;;3.30;;
71395;SDS011;59888;55.814;37.132;2023-04-16T13:17:24;6.45;;;3.30;;
71395;SDS011;59888;55.814;37.132;2023-04-16T13:19:50;7.57;;;3.30;;
71395;SDS011;59888;55.814;37.132;2023-04-16T13:22:16;5.47;;;3.30;;
71395;SDS011;59888;55.814;37.132;2023-04-16T13:24:42;6.72;;;3.08;;
71395;SDS011;59888;55.814;37.132;2023-04-16T13:27:07;8.15;;;3.33;;
71395;SDS011;59888;55.814;37.132;2023-04-16T13:29:33;5.45;;;3.30;;
71395;SDS011;59888;55.814;37.132;2023-04-16T13:32:02;5.82;;;3.45;;
71395;SDS011;59888;55.814;37.132;2023-04-16T13:34:28;9.40;;;3.17;;
71395;SDS011;59888;55.814;37.132;2023-04-16T13:36:54;5.70;;;3.20;;
71395;SDS011;59888;55.814;37.132;2023-04-16T13:39:20;6.30;;;3.25;;
71395;SDS011;59888;55.814;37.132;2023-04-16T13:41:46;5.68;;;3.85;;
71395;SDS011;59888;55.814;37.132;2023-04-16T13:44:13;6.40;;;3.80;;
71395;SDS011;59888;55.814;37.132;2023-04-16T13:46:39;7.68;;;3.45;;
71395;SDS011;59888;55.814;37.132;2023-04-16T13:49:07;4.63;;;3.05;;
71395;SDS011;59888;55.814;37.132;2023-04-16T13:51:33;5.15;;;3.63;;
71395;SDS011;59888;55.814;37.132;2023-04-16T13:53:59;6.60;;;4.20;;
71395;SDS011;59888;55.814;37.132;2023-04-16T13:56:25;5.57;;;3.10;;
71395;SDS011;59888;55.814;37.132;2023-04-16T13:58:51;4.72;;;3.13;;
71395;SDS011;59888;55.814;37.132;2023-04-16T14:01:17;6.30;;;4.18;;
71395;SDS011;59888;55.814;37.132;2023-04-16T14:03:43;7.97;;;3.40;;
71395;SDS011;59888;55.814;37.132;2023-04-16T14:06:09;11.13;;;3.50;;
71395;SDS011;59888;55.814;37.132;2023-04-16T14:08:35;8.05;;;3.50;;
71395;SDS011;59888;55.814;37.132;2023-04-16T14:11:01;6.82;;;3.38;;
71395;SDS011;59888;55.814;37.132;2023-04-16T14:13:26;6.47;;;3.40;;
71395;SDS011;59888;55.814;37.132;2023-04-16T14:15:53;5.32;;;3.10;;
71395;SDS011;59888;55.814;37.132;2023-04-16T14:18:19;5.03;;;3.13;;
71395;SDS011;59888;55.814;37.132;2023-04-16T14:20:45;6.60;;;3.10;;
71395;SDS011;59888;55.814;37.132;2023-04-16T14:23:11;4.47;;;3.13;;
71395;SDS011;59888;55.814;37.132;2023-04-16T14:25:37;5.57;;;2.90;;
71395;SDS011;59888;55.814;37.132;2023-04-16T14:28:03;5.43;;;3.17;;
71395;SDS011;59888;55.814;37.132;2023-04-16T14:30:29;6.82;;;3.10;;
71395;SDS011;59888;55.814;37.132;2023-04-16T14:32:55;5.50;;;3.33;;
71395;SDS011;59888;55.814;37.132;2023-04-16T14:35:21;6.93;;;3.28;;
71395;SDS011;59888;55.814;37.132;2023-04-16T14:37:47;6.75;;;3.22;;